Time;durP1;ratioP1;P1;durP2;ratioP2;P2;SDS_P1;SDS_P2;PMS_P1;PMS_P2;Temp;Humidity;BMP_temperature;BMP_pressure;BME280_temperature;BME280_humidity;BME280_pressure;Samples;Min_cycle;Max_cycle;Signal;HPM_P1;HPM_P2
2022/10/22 00:02:04;;;;;;;9.55;1.98;;;15.10;85.10;;;13.61;100.00;95744.63;5008537;28;20132;-68
2022/10/22 00:04:30;;;;;;;6.95;2.35;;;15.10;85.30;;;13.61;100.00;95746.47;5009272;28;20038;-67
2022/10/22 00:06:56;;;;;;;7.45;2.67;;;15.10;85.40;;;13.61;100.00;95742.00;5008886;28;20385;-68
2022/10/22 00:09:22;;;;;;;7.82;2.80;;;15.20;85.40;;;13.60;100.00;95740.38;5009557;28;20125;-68
2022/10/22 00:11:47;;;;;;;7.38;3.13;;;15.10;85.60;;;13.59;100.00;95735.31;5000463;28;20121;-68
2022/10/22 00:14:14;;;;;;;8.88;3.33;;;15.10;85.50;;;13.59;100.00;95740.59;5006835;28;20049;-68
2022/10/22 00:16:40;;;;;;;14.98;4.05;;;15.10;85.40;;;13.59;100.00;95740.59;5006364;28;21027;-68
2022/10/22 00:19:07;;;;;;;14.30;4.90;;;15.10;85.60;;;13.59;100.00;95743.25;5008047;28;20162;-68
2022/10/22 00:21:34;;;;;;;13.05;5.75;;;15.10;85.60;;;13.58;100.00;95744.25;5002280;28;20038;-68
2022/10/22 00:24:00;;;;;;;19.48;5.97;;;15.10;85.60;;;13.58;100.00;95752.16;5005298;28;20049;-68
2022/10/22 00:26:26;;;;;;;11.10;4.60;;;15.10;85.60;;;13.58;100.00;95744.25;4976820;28;20089;-67
2022/10/22 00:28:52;;;;;;;10.30;4.72;;;15.10;85.70;;;13.57;100.00;95743.44;5007479;28;20033;-68
2022/10/22 00:31:19;;;;;;;18.38;5.20;;;15.10;85.80;;;13.57;100.00;95758.47;5003960;28;20055;-68
2022/10/22 00:33:46;;;;;;;9.68;4.35;;;15.10;85.70;;;13.57;100.00;95750.56;5009596;28;20033;-67
2022/10/22 00:36:11;;;;;;;11.32;4.45;;;15.10;85.70;;;13.57;100.00;95758.47;5007325;28;20125;-68
2022/10/22 00:38:37;;;;;;;6.60;3.65;;;15.10;85.80;;;13.55;100.00;95765.81;5001991;28;20034;-68
2022/10/22 00:41:03;;;;;;;4.90;2.75;;;15.10;85.90;;;13.55;100.00;95771.09;5008730;28;20030;-68
2022/10/22 00:43:29;;;;;;;6.25;2.90;;;15.10;85.90;;;13.56;100.00;95772.72;4998425;28;20026;-68
2022/10/22 00:45:54;;;;;;;6.43;2.22;;;15.10;85.90;;;13.55;100.00;95781.66;5006761;28;20569;-68
2022/10/22 00:48:30;;;;;;;3.88;2.05;;;15.10;86.10;;;13.53;100.00;95784.53;4988710;28;20510;-67
2022/10/22 00:51:02;;;;;;;3.03;1.65;;;15.10;86.10;;;13.53;100.00;95799.56;4979134;28;20070;-67
2022/10/22 00:53:32;;;;;;;4.38;1.45;;;15.10;86.20;;;13.51;100.00;95809.56;4990383;28;20064;-66
2022/10/22 00:55:57;;;;;;;2.55;1.58;;;15.00;86.40;;;13.47;100.00;95817.91;4989970;28;20041;-66
2022/10/22 00:58:26;;;;;;;5.35;1.58;;;14.90;86.60;;;13.47;100.00;95832.94;5004536;28;20546;-66
2022/10/22 01:00:52;;;;;;;4.38;1.80;;;14.90;86.90;;;13.43;100.00;95827.28;4992484;28;20030;-66
2022/10/22 01:03:18;;;;;;;4.45;1.65;;;14.70;87.30;;;13.41;100.00;95824.06;4992901;28;20527;-66
2022/10/22 01:06:00;;;;;;;4.55;1.83;;;14.80;87.50;;;13.40;100.00;95811.06;5006634;28;20057;-66
2022/10/22 01:08:57;;;;;;;2.80;1.60;;;14.80;87.50;;;13.37;100.00;95809.66;4987655;28;20038;-66
2022/10/22 01:11:47;;;;;;;3.10;1.80;;;14.70;88.00;;;13.34;100.00;95796.84;5007450;28;20054;-66
2022/10/22 01:14:38;;;;;;;2.75;1.35;;;14.70;88.20;;;13.30;100.00;95789.56;4992118;28;20038;-66
2022/10/22 01:17:51;;;;;;;3.15;1.60;;;14.60;88.70;;;13.30;100.00;95785.09;4996153;28;20038;-67
2022/10/22 01:20:36;;;;;;;2.85;1.58;;;14.60;88.50;;;13.28;100.00;95771.28;4993253;28;20043;-66
2022/10/22 01:23:29;;;;;;;2.65;1.15;;;14.60;88.50;;;13.31;100.00;95755.00;4987060;28;20034;-67
2022/10/22 01:26:46;;;;;;;4.50;1.40;;;14.70;88.30;;;13.32;100.00;95747.91;5002412;28;20030;-66
2022/10/22 01:29:17;;;;;;;4.80;1.48;;;14.80;88.20;;;13.32;100.00;95751.34;5003127;28;20573;-66
2022/10/22 01:32:04;;;;;;;3.00;1.55;;;14.80;88.20;;;13.34;100.00;95749.31;4983129;28;20134;-66
2022/10/22 01:34:30;;;;;;;2.85;1.50;;;14.90;88.10;;;13.34;100.00;95754.59;5004124;28;20052;-66
2022/10/22 01:36:56;;;;;;;3.67;1.83;;;14.80;88.20;;;13.35;100.00;95761.50;4998233;28;20030;-66
2022/10/22 01:39:23;;;;;;;5.72;1.60;;;14.90;88.10;;;13.35;100.00;95758.88;4973037;28;20046;-66
2022/10/22 01:41:48;;;;;;;3.60;1.48;;;14.80;88.10;;;13.36;100.00;95778.97;4990465;28;20034;-66
2022/10/22 01:44:31;;;;;;;2.85;1.38;;;14.90;88.00;;;13.38;100.00;95782.22;5004664;28;20140;-66
2022/10/22 01:47:39;;;;;;;2.50;1.50;;;14.90;88.00;;;13.39;100.00;95785.66;4993448;28;20073;-66
2022/10/22 01:50:29;;;;;;;3.75;1.40;;;14.90;88.10;;;13.37;100.00;95785.88;4987216;28;20112;-67
2022/10/22 01:53:16;;;;;;;2.87;1.43;;;14.90;88.20;;;13.35;100.00;95787.94;5003576;28;20030;-66
2022/10/22 01:56:22;;;;;;;3.35;1.60;;;14.80;88.30;;;13.35;100.00;95773.88;5004038;28;20029;-66
2022/10/22 01:59:20;;;;;;;3.65;1.67;;;14.80;88.40;;;13.35;100.00;95774.72;5000892;28;20140;-66
2022/10/22 02:02:51;;;;;;;5.18;2.15;;;14.80;88.40;;;13.35;100.00;95766.78;4968012;28;20113;-66
2022/10/22 02:05:48;;;;;;;3.03;1.52;;;14.90;88.20;;;13.35;100.00;95772.06;4945566;28;20039;-66
2022/10/22 02:08:26;;;;;;;3.72;1.80;;;14.90;88.20;;;13.33;100.00;95782.03;4992510;28;20053;-66
2022/10/22 02:10:51;;;;;;;1.88;1.50;;;14.80;88.30;;;13.31;100.00;95786.72;4981302;28;20502;-66
2022/10/22 02:13:23;;;;;;;3.53;1.85;;;14.80;88.20;;;13.33;100.00;95791.78;5000749;28;20061;-66
2022/10/22 02:15:50;;;;;;;3.88;1.70;;;14.90;88.10;;;13.31;100.00;95792.00;4986890;28;20033;-66
2022/10/22 02:18:16;;;;;;;4.47;1.60;;;14.90;88.10;;;13.33;100.00;95813.72;5004525;28;20129;-66
2022/10/22 02:20:42;;;;;;;2.97;1.58;;;14.80;88.30;;;13.33;100.00;95811.09;4989207;28;20127;-66
2022/10/22 02:23:08;;;;;;;2.78;1.50;;;14.80;88.20;;;13.34;100.00;95815.34;5019496;28;20112;-66
2022/10/22 02:25:37;;;;;;;3.38;1.85;;;14.90;88.20;;;13.34;100.00;95812.69;4993593;28;20034;-66
2022/10/22 02:28:27;;;;;;;3.90;1.75;;;14.80;88.10;;;13.35;100.00;95824.06;4985056;28;20034;-66
2022/10/22 02:31:03;;;;;;;2.58;1.45;;;14.90;88.10;;;13.33;100.00;95826.13;4999747;28;20129;-66
2022/10/22 02:33:32;;;;;;;5.10;1.85;;;14.80;88.10;;;13.32;100.00;95825.31;4996714;28;20045;-65
2022/10/22 02:35:57;;;;;;;3.67;1.67;;;14.80;88.40;;;13.31;100.00;95828.16;4997919;28;20045;-65
2022/10/22 02:38:23;;;;;;;2.95;1.60;;;14.80;88.40;;;13.31;100.00;95828.97;5006669;28;20030;-65
2022/10/22 02:40:49;;;;;;;2.75;1.60;;;14.70;88.30;;;13.30;100.00;95826.56;5006397;28;20115;-66
2022/10/22 02:43:16;;;;;;;3.42;1.60;;;14.80;88.30;;;13.30;100.00;95831.84;5001136;28;20116;-65
2022/10/22 02:45:42;;;;;;;3.67;1.50;;;14.70;88.40;;;13.27;100.00;95830.44;4986301;28;20224;-65
2022/10/22 02:48:08;;;;;;;3.28;1.55;;;14.80;88.40;;;13.28;100.00;95839.97;4978480;28;20084;-65
2022/10/22 02:50:33;;;;;;;2.20;1.50;;;14.70;88.40;;;13.28;100.00;95836.53;5005420;28;20060;-65
2022/10/22 02:52:59;;;;;;;2.63;1.52;;;14.80;88.50;;;13.26;100.00;95831.44;5004418;28;20117;-65
2022/10/22 02:55:25;;;;;;;4.35;2.00;;;14.70;88.60;;;13.26;100.00;95842.00;5004897;28;20561;-64
2022/10/22 02:57:51;;;;;;;5.30;1.50;;;14.70;88.70;;;13.23;100.00;95842.44;4999106;28;20537;-65
2022/10/22 03:00:17;;;;;;;2.13;1.30;;;14.70;89.00;;;13.24;100.00;95836.13;5007383;28;20510;-65
2022/10/22 03:02:42;;;;;;;3.80;1.63;;;14.70;89.00;;;13.25;100.00;95836.94;4998445;28;21840;-65
2022/10/22 03:05:08;;;;;;;4.63;1.60;;;14.70;88.90;;;13.26;100.00;95841.22;4997344;28;20061;-65
2022/10/22 03:07:34;;;;;;;3.53;1.60;;;14.80;88.90;;;13.26;100.00;95834.09;5006950;28;20113;-65
2022/10/22 03:10:00;;;;;;;2.42;1.55;;;14.70;88.90;;;13.26;100.00;95839.38;4994904;28;20133;-65
2022/10/22 03:12:25;;;;;;;2.83;1.50;;;14.70;88.90;;;13.25;100.00;95835.13;5005401;28;20504;-65
2022/10/22 03:14:51;;;;;;;5.32;1.48;;;14.70;88.90;;;13.24;100.00;95833.50;4988769;28;20435;-65
2022/10/22 03:17:17;;;;;;;2.90;1.55;;;14.60;89.00;;;13.22;100.00;95824.97;5002807;28;20497;-65
2022/10/22 03:19:43;;;;;;;3.53;1.42;;;14.60;89.00;;;13.20;100.00;95836.78;5004637;28;20100;-65
2022/10/22 03:22:26;;;;;;;4.05;1.40;;;14.60;89.30;;;13.19;100.00;95830.69;5002855;28;20030;-65
2022/10/22 03:24:55;;;;;;;3.17;1.80;;;14.50;89.40;;;13.16;100.00;95831.88;4975328;28;20073;-65
2022/10/22 03:27:21;;;;;;;4.20;1.80;;;14.60;89.30;;;13.15;100.00;95837.38;5003643;28;20494;-65
2022/10/22 03:29:48;;;;;;;3.13;1.63;;;14.50;89.40;;;13.13;100.00;95831.50;4972319;28;20431;-65
2022/10/22 03:32:14;;;;;;;2.88;1.50;;;14.50;89.60;;;13.10;100.00;95834.53;4993548;28;20034;-64
2022/10/22 03:34:40;;;;;;;5.95;1.95;;;14.50;89.70;;;13.11;100.00;95838.81;4942369;28;20356;-67
2022/10/22 03:37:06;;;;;;;3.95;1.75;;;14.50;89.60;;;13.10;100.00;95831.91;4910313;23;20221;-66
2022/10/22 03:39:33;;;;;;;3.92;1.95;;;14.50;89.70;;;13.10;100.00;95842.47;4828527;28;20358;-68
2022/10/22 03:42:00;;;;;;;3.03;1.88;;;14.50;89.70;;;13.09;100.00;95846.13;4843180;23;20034;-72
2022/10/22 03:44:26;;;;;;;3.58;2.10;;;14.50;89.70;;;13.09;100.00;95856.69;4850551;28;20193;-72
2022/10/22 03:46:52;;;;;;;6.05;2.10;;;14.40;89.40;;;13.07;100.00;95874.56;4835669;23;20441;-64
2022/10/22 03:49:18;;;;;;;3.83;2.00;;;14.40;89.40;;;13.07;100.00;95885.13;4752191;29;20335;-64
2022/10/22 03:51:44;;;;;;;4.55;2.15;;;14.40;89.30;;;13.05;100.00;95888.00;4782160;29;20374;-65
2022/10/22 03:54:11;;;;;;;2.70;1.90;;;14.30;89.10;;;13.02;100.00;95893.69;4776348;29;20472;-65
2022/10/22 03:56:37;;;;;;;6.13;1.92;;;14.30;89.00;;;12.99;100.00;95888.03;4767538;29;20340;-63
2022/10/22 03:59:03;;;;;;;2.55;1.58;;;14.20;88.30;;;12.95;100.00;95886.81;4772806;29;20466;-65
2022/10/22 04:01:29;;;;;;;6.45;1.60;;;14.20;88.40;;;12.93;100.00;95883.59;4769870;29;20464;-63
2022/10/22 04:03:55;;;;;;;3.90;1.50;;;14.20;88.10;;;12.91;100.00;95880.34;4760966;29;20708;-63
2022/10/22 04:06:21;;;;;;;4.90;1.70;;;14.20;87.90;;;12.89;100.00;95875.25;4758918;29;20703;-63
2022/10/22 04:08:47;;;;;;;2.38;1.30;;;14.20;87.90;;;12.85;100.00;95888.06;4777105;29;20288;-63
2022/10/22 04:11:14;;;;;;;4.47;1.60;;;14.10;88.00;;;12.81;100.00;95881.59;4757249;29;20384;-63
2022/10/22 04:13:40;;;;;;;2.28;1.33;;;14.10;87.90;;;12.80;100.00;95895.00;4770092;29;20577;-63
2022/10/22 04:16:11;;;;;;;3.00;2.08;;;14.10;87.90;;;12.78;100.00;95892.56;4754916;29;20417;-64
2022/10/22 04:18:37;;;;;;;2.97;1.52;;;14.10;87.90;;;12.74;100.00;95891.34;4768584;29;20413;-63
2022/10/22 04:21:04;;;;;;;4.18;1.85;;;14.00;87.80;;;12.70;100.00;95884.06;4787729;29;20579;-63
2022/10/22 04:23:30;;;;;;;4.25;2.20;;;14.00;88.00;;;12.68;100.00;95888.75;4773191;29;20451;-66
2022/10/22 04:26:01;;;;;;;7.25;4.13;;;14.00;88.10;;;12.64;100.00;95880.41;4757299;29;20392;-66
2022/10/22 04:28:27;;;;;;;3.28;1.98;;;13.90;88.10;;;12.61;100.00;95880.81;4771109;29;20426;-66
2022/10/22 04:30:53;;;;;;;2.17;1.48;;;13.90;87.80;;;12.59;100.00;95888.13;4753929;29;20504;-67
2022/10/22 04:33:19;;;;;;;2.00;1.17;;;13.80;87.80;;;12.53;100.00;95888.97;4773527;29;20350;-64
2022/10/22 04:35:45;;;;;;;3.75;1.40;;;13.70;87.70;;;12.49;100.00;95893.03;4772101;29;20626;-64
2022/10/22 04:38:11;;;;;;;3.40;1.38;;;13.70;87.70;;;12.47;100.00;95895.88;4757338;29;20431;-65
2022/10/22 04:40:37;;;;;;;2.08;1.10;;;13.70;87.80;;;12.43;100.00;95884.09;4771344;29;20437;-65
2022/10/22 04:43:03;;;;;;;4.85;1.55;;;13.70;87.90;;;12.39;100.00;95888.16;4773306;29;20591;-67
2022/10/22 04:45:31;;;;;;;2.30;1.30;;;13.70;87.70;;;12.36;100.00;95882.50;4785919;29;20338;-65
2022/10/22 04:47:57;;;;;;;2.72;1.40;;;13.60;87.70;;;12.35;100.00;95892.22;4757796;29;20378;-64
2022/10/22 04:50:23;;;;;;;1.50;1.10;;;13.60;87.80;;;12.33;100.00;95889.00;4755402;29;20355;-64
2022/10/22 04:52:49;;;;;;;2.35;1.13;;;13.60;87.60;;;12.31;100.00;95895.50;4760304;29;20357;-65
2022/10/22 04:55:15;;;;;;;5.53;1.10;;;13.60;87.60;;;12.31;100.00;95906.03;4751753;29;20401;-65
2022/10/22 04:57:41;;;;;;;3.85;1.00;;;13.60;87.60;;;12.29;100.00;95902.81;4752607;29;20430;-64
2022/10/22 05:00:08;;;;;;;3.17;1.00;;;13.70;87.70;;;12.30;100.00;95913.13;4749724;29;20353;-63
2022/10/22 05:02:34;;;;;;;2.60;0.90;;;13.70;87.60;;;12.28;100.00;95912.53;4756260;29;20387;-63
2022/10/22 05:05:01;;;;;;;5.82;3.67;;;13.60;87.60;;;12.30;100.00;95907.88;4756690;29;20433;-64
2022/10/22 05:07:27;;;;;;;3.30;2.38;;;13.70;87.50;;;12.30;100.00;95904.41;4778918;29;20820;-64
2022/10/22 05:09:53;;;;;;;5.50;1.95;;;13.80;87.40;;;12.31;100.00;95911.31;4756860;29;20333;-64
2022/10/22 05:12:19;;;;;;;4.38;3.00;;;13.70;87.20;;;12.30;100.00;95904.41;4775392;29;20281;-64
2022/10/22 05:14:45;;;;;;;5.70;3.55;;;13.80;87.20;;;12.32;100.00;95903.19;4755372;29;20449;-64
2022/10/22 05:17:11;;;;;;;4.43;3.08;;;13.80;87.10;;;12.32;100.00;95897.09;4771597;29;20507;-65
2022/10/22 05:19:37;;;;;;;11.88;10.48;;;13.70;86.90;;;12.31;100.00;95908.69;4770187;29;20373;-68
2022/10/22 05:22:03;;;;;;;6.95;4.70;;;13.80;87.10;;;12.32;100.00;95912.94;4768911;29;20324;-64
2022/10/22 05:24:30;;;;;;;4.38;3.40;;;13.80;86.90;;;12.32;100.00;95908.47;4764067;29;20375;-65
2022/10/22 05:26:57;;;;;;;3.03;1.58;;;13.80;87.00;;;12.33;100.00;95904.00;4742355;29;20507;-64
2022/10/22 05:29:23;;;;;;;3.63;1.20;;;13.80;86.90;;;12.32;100.00;95894.47;4754009;29;20349;-65
2022/10/22 05:31:49;;;;;;;2.47;1.50;;;13.70;86.90;;;12.31;100.00;95892.84;4774561;29;20610;-65
2022/10/22 05:34:15;;;;;;;1.70;1.20;;;13.70;86.80;;;12.31;100.00;95898.13;4773394;29;20476;-65
2022/10/22 05:36:41;;;;;;;4.43;0.98;;;13.70;86.60;;;12.26;100.00;95912.75;4759791;29;20229;-66
2022/10/22 05:39:07;;;;;;;2.28;0.90;;;13.60;86.70;;;12.24;100.00;95912.13;4744710;29;20454;-66
2022/10/22 05:41:34;;;;;;;3.22;1.20;;;13.60;87.00;;;12.23;100.00;95912.34;4740035;29;20471;-63
2022/10/22 05:44:00;;;;;;;2.92;1.40;;;13.60;86.80;;;12.21;100.00;95922.25;4756048;29;20398;-65
2022/10/22 05:46:29;;;;;;;2.55;1.17;;;13.60;87.00;;;12.18;100.00;95912.94;4768119;29;20711;-64
2022/10/22 05:49:01;;;;;;;2.13;1.10;;;13.60;87.10;;;12.13;100.00;95920.66;4752237;29;20353;-64
2022/10/22 05:51:28;;;;;;;1.92;0.95;;;13.50;87.10;;;12.10;100.00;95926.31;4752968;29;20449;-65
2022/10/22 05:53:58;;;;;;;4.93;1.25;;;13.50;87.10;;;12.07;100.00;95918.81;4756633;29;20311;-65
2022/10/22 05:56:24;;;;;;;2.95;0.85;;;13.40;87.10;;;12.05;100.00;95923.50;4751765;29;20481;-65
2022/10/22 05:58:50;;;;;;;1.15;0.70;;;13.40;87.20;;;12.02;100.00;95923.09;4738829;29;20357;-65
2022/10/22 06:01:18;;;;;;;1.80;0.98;;;13.30;87.20;;;11.99;100.00;95929.53;4760453;29;20826;-64
2022/10/22 06:03:45;;;;;;;2.60;0.75;;;13.30;87.30;;;11.98;100.00;95927.94;4770902;29;20409;-65
2022/10/22 06:06:29;;;;;;;1.10;0.60;;;13.30;87.30;;;11.96;100.00;95924.69;4756146;29;20452;-65
2022/10/22 06:08:55;;;;;;;3.53;0.50;;;13.30;87.40;;;11.93;100.00;95923.25;4773946;29;20461;-65
2022/10/22 06:11:22;;;;;;;0.60;0.50;;;13.30;87.10;;;11.94;100.00;95929.34;4770868;29;20843;-64
2022/10/22 06:13:48;;;;;;;2.25;0.55;;;13.40;87.20;;;11.96;100.00;95924.69;4766921;29;20327;-65
2022/10/22 06:16:14;;;;;;;0.68;0.50;;;13.40;86.90;;;11.97;100.00;95921.03;4767777;29;20676;-63
2022/10/22 06:18:40;;;;;;;2.67;1.02;;;13.40;86.60;;;11.96;100.00;95922.84;4764104;29;20292;-63
2022/10/22 06:21:08;;;;;;;1.55;0.65;;;13.50;86.70;;;11.97;100.00;95921.03;4753656;29;20347;-64
2022/10/22 06:23:35;;;;;;;1.33;0.55;;;13.40;86.70;;;11.97;100.00;95926.31;4747984;29;20302;-65
2022/10/22 06:26:01;;;;;;;2.17;0.60;;;13.40;86.80;;;11.98;100.00;95937.66;4764647;29;20460;-64
2022/10/22 06:28:27;;;;;;;1.20;0.50;;;13.40;86.70;;;11.99;100.00;95934.81;4801165;29;20472;-64
2022/10/22 06:30:53;;;;;;;1.40;0.70;;;13.50;86.90;;;12.00;100.00;95939.09;4755463;29;20331;-64
2022/10/22 06:33:19;;;;;;;3.38;1.10;;;13.50;86.70;;;12.01;100.00;95938.09;4767752;29;20451;-65
2022/10/22 06:35:47;;;;;;;2.67;1.23;;;13.50;86.30;;;12.04;100.00;95942.16;4764537;29;20349;-63
2022/10/22 06:38:13;;;;;;;3.67;1.23;;;13.60;86.30;;;12.07;100.00;95949.66;4753008;29;20645;-64
2022/10/22 06:40:42;;;;;;;4.68;1.20;;;13.60;86.20;;;12.09;100.00;95947.63;4778957;29;20470;-65
2022/10/22 06:43:09;;;;;;;2.67;0.80;;;13.70;86.10;;;12.11;100.00;95964.84;4777707;29;20685;-65
2022/10/22 06:45:35;;;;;;;1.50;0.90;;;13.60;85.80;;;12.12;100.00;95970.94;4760773;29;20437;-64
2022/10/22 06:48:01;;;;;;;1.60;0.85;;;13.60;85.90;;;12.14;100.00;95980.28;4787980;29;20257;-67
2022/10/22 06:50:28;;;;;;;1.70;1.00;;;13.70;85.80;;;12.15;100.00;95987.16;4772850;29;20339;-65
2022/10/22 06:52:54;;;;;;;1.40;0.60;;;13.70;85.80;;;12.15;100.00;95987.16;4773671;29;20335;-64
2022/10/22 06:55:21;;;;;;;1.88;1.40;;;13.70;85.70;;;12.16;100.00;95996.69;4766049;29;20594;-63
2022/10/22 06:57:47;;;;;;;2.15;1.60;;;13.60;85.80;;;12.17;100.00;96000.97;4793732;29;20461;-66
2022/10/22 07:00:14;;;;;;;14.25;9.93;;;13.70;85.70;;;12.21;100.00;96002.19;4769317;29;20812;-66
2022/10/22 07:02:40;;;;;;;18.20;13.88;;;13.80;86.00;;;12.23;100.00;96008.09;4799712;29;20557;-65
2022/10/22 07:05:07;;;;;;;18.45;13.73;;;13.80;86.10;;;12.26;100.00;96010.31;4773145;29;20407;-67
2022/10/22 07:07:33;;;;;;;11.73;10.52;;;13.90;86.20;;;12.29;100.00;96016.19;4789675;29;20712;-67
2022/10/22 07:10:00;;;;;;;2.88;2.50;;;13.90;86.00;;;12.32;100.00;96027.16;4786748;29;20353;-67
2022/10/22 07:12:26;;;;;;;4.25;1.30;;;14.00;86.00;;;12.33;100.00;96038.53;4770340;29;20457;-66
2022/10/22 07:14:52;;;;;;;1.30;0.82;;;14.00;86.00;;;12.35;100.00;96033.84;4787238;29;20404;-64
2022/10/22 07:17:18;;;;;;;3.65;1.30;;;14.00;86.00;;;12.38;100.00;96041.34;4786311;29;20394;-65
2022/10/22 07:19:44;;;;;;;3.22;1.77;;;14.00;85.90;;;12.42;100.00;96046.03;4774641;29;20678;-66
2022/10/22 07:22:11;;;;;;;5.03;2.55;;;14.10;85.80;;;12.44;100.00;96053.72;4786484;29;20289;-67
2022/10/22 07:24:37;;;;;;;6.10;2.90;;;14.10;85.80;;;12.47;100.00;96056.00;4805281;29;20045;-69
2022/10/22 07:27:03;;;;;;;4.65;3.28;;;14.10;85.70;;;12.49;100.00;96061.88;4792676;29;20368;-65
2022/10/22 07:29:30;;;;;;;3.72;2.30;;;14.20;85.80;;;12.52;100.00;96064.13;4779116;29;20358;-65
2022/10/22 07:31:56;;;;;;;2.95;1.80;;;14.20;85.60;;;12.56;100.00;96070.59;4774492;29;20379;-66
2022/10/22 07:34:22;;;;;;;8.00;1.63;;;14.30;85.20;;;12.60;100.00;96074.47;4785850;29;20040;-66
2022/10/22 07:36:49;;;;;;;2.55;1.20;;;14.30;85.20;;;12.64;100.00;96075.69;4793761;29;20371;-67
2022/10/22 07:39:15;;;;;;;3.78;0.80;;;14.40;85.00;;;12.68;100.00;96076.91;4764211;29;20736;-65
2022/10/22 07:41:41;;;;;;;3.50;1.10;;;14.40;84.50;;;12.72;100.00;96083.41;4768238;29;20448;-65
2022/10/22 07:44:07;;;;;;;6.18;3.53;;;14.50;84.40;;;12.78;100.00;96076.50;4758438;29;20201;-64
2022/10/22 07:46:34;;;;;;;3.80;2.83;;;14.60;84.40;;;12.83;100.00;96082.78;4771398;29;20690;-65
2022/10/22 07:49:00;;;;;;;6.68;2.25;;;14.70;84.10;;;12.89;100.00;96087.25;4771127;29;20557;-64
2022/10/22 07:51:26;;;;;;;3.65;1.98;;;14.80;83.90;;;12.96;100.00;96095.19;4774588;29;20690;-64
2022/10/22 07:53:52;;;;;;;2.28;0.90;;;14.90;83.60;;;13.01;100.00;96108.59;4787265;29;20362;-65
2022/10/22 07:56:18;;;;;;;3.35;1.50;;;14.80;82.90;;;13.06;100.00;96102.69;4757206;29;20324;-66
2022/10/22 07:58:44;;;;;;;2.08;1.45;;;15.00;83.00;;;13.14;100.00;96097.22;4789341;29;20311;-65
2022/10/22 08:01:10;;;;;;;3.38;1.55;;;15.10;83.10;;;13.20;100.00;96107.00;4781004;29;20323;-63
2022/10/22 08:03:36;;;;;;;2.08;1.30;;;15.10;82.80;;;13.27;100.00;96113.06;4778572;29;20499;-64
2022/10/22 08:06:02;;;;;;;4.72;1.63;;;15.20;82.90;;;13.35;100.00;96104.94;4776095;29;20343;-65
2022/10/22 08:08:32;;;;;;;2.40;1.50;;;15.30;83.20;;;13.43;100.00;96110.00;4756441;29;20460;-64
2022/10/22 08:10:59;;;;;;;4.00;2.63;;;15.40;83.30;;;13.54;100.00;96113.00;4759092;29;20434;-64
2022/10/22 08:13:26;;;;;;;2.33;1.23;;;15.40;83.10;;;13.60;100.00;96107.75;4770758;29;20660;-65
2022/10/22 08:15:52;;;;;;;1.92;1.30;;;15.50;82.80;;;13.67;100.00;96102.44;4769841;29;20276;-64
2022/10/22 08:18:18;;;;;;;2.88;1.00;;;15.60;82.70;;;13.71;100.00;96114.19;4752570;29;20523;-65
2022/10/22 08:20:45;;;;;;;2.13;1.05;;;15.60;82.60;;;13.76;100.00;96111.75;4769857;29;20355;-66
2022/10/22 08:23:11;;;;;;;1.95;0.85;;;15.60;82.50;;;13.82;100.00;96113.56;4763670;29;20548;-66
2022/10/22 08:25:37;;;;;;;2.70;0.75;;;15.60;82.10;;;13.85;100.00;96114.97;4754116;29;20361;-65
2022/10/22 08:28:03;;;;;;;2.53;0.70;;;15.60;81.90;;;13.87;100.00;96128.81;4771541;29;20353;-65
2022/10/22 08:30:30;;;;;;;1.23;0.55;;;15.60;81.50;;;13.90;100.00;96134.47;4784002;29;20266;-67
2022/10/22 08:32:56;;;;;;;1.40;0.90;;;15.70;81.60;;;13.93;100.00;96128.78;4764815;29;20574;-66
2022/10/22 08:35:22;;;;;;;2.05;1.25;;;15.70;81.10;;;13.96;100.00;96138.13;4777039;29;20337;-67
2022/10/22 08:37:51;;;;;;;2.20;1.10;;;15.70;80.80;;;13.96;100.00;96133.63;4774599;29;20365;-68
2022/10/22 08:40:33;;;;;;;1.20;0.82;;;15.70;81.10;;;14.00;100.00;96134.03;4801408;29;20465;-67
2022/10/22 08:43:17;;;;;;;2.10;1.00;;;15.70;80.90;;;14.02;100.00;96142.56;4764943;29;20317;-67
2022/10/22 08:45:52;;;;;;;3.30;0.70;;;15.60;80.70;;;13.98;100.00;96144.81;4792673;29;20731;-68
2022/10/22 08:48:18;;;;;;;2.35;0.60;;;15.60;81.40;;;13.99;100.00;96149.09;4797769;29;20490;-66
2022/10/22 08:50:49;;;;;;;1.45;0.60;;;15.60;81.60;;;13.95;100.00;96147.88;4774143;29;20377;-66
2022/10/22 08:53:21;;;;;;;0.98;0.60;;;15.50;80.50;;;13.92;100.00;96148.31;4772042;29;20753;-65
2022/10/22 08:55:48;;;;;;;2.58;1.10;;;15.50;81.00;;;13.94;100.00;96156.84;4758772;29;20782;-66
2022/10/22 08:58:43;;;;;;;1.80;1.15;;;15.60;80.70;;;14.00;100.00;96160.47;4764375;29;20413;-67
2022/10/22 09:01:39;;;;;;;1.80;1.10;;;15.80;80.80;;;14.03;100.00;96165.34;4729675;29;20607;-64
2022/10/22 09:04:24;;;;;;;2.90;1.10;;;15.70;80.20;;;14.06;100.00;96165.75;4758195;29;20392;-67
2022/10/22 09:06:51;;;;;;;3.60;1.77;;;15.80;80.40;;;14.15;100.00;96160.22;4785026;29;20400;-65
2022/10/22 09:09:18;;;;;;;4.35;1.98;;;16.00;80.90;;;14.25;100.00;96166.69;4753819;29;20465;-65
2022/10/22 09:11:47;;;;;;;1.98;1.00;;;16.10;80.70;;;14.31;100.00;96168.50;4749366;29;20755;-65
2022/10/22 09:14:23;;;;;;;3.47;0.93;;;16.20;80.60;;;14.40;100.00;96182.31;4787579;29;20499;-66
2022/10/22 09:17:16;;;;;;;2.45;0.90;;;16.20;80.70;;;14.47;100.00;96187.59;4768559;29;20436;-66
2022/10/22 09:19:45;;;;;;;1.65;1.00;;;16.30;80.50;;;14.51;100.00;96194.91;4803594;29;20330;-67
2022/10/22 09:22:43;;;;;;;4.30;1.10;;;16.30;79.70;;;14.57;100.00;96193.25;4777342;29;20347;-68
2022/10/22 09:25:09;;;;;;;1.70;0.80;;;16.30;80.20;;;14.61;100.00;96178.56;4780340;29;20355;-67
2022/10/22 09:27:35;;;;;;;1.60;0.70;;;16.40;79.10;;;14.63;100.00;96187.09;4801237;29;20247;-66
2022/10/22 09:30:01;;;;;;;0.85;0.60;;;16.40;78.80;;;14.65;100.00;96185.06;4768928;29;20453;-67
2022/10/22 09:32:28;;;;;;;2.78;0.90;;;16.40;78.70;;;14.68;100.00;96188.09;4753026;29;20327;-68
2022/10/22 09:34:57;;;;;;;2.10;1.05;;;16.50;78.70;;;14.74;100.00;96177.69;4765074;29;20349;-68
2022/10/22 09:37:28;;;;;;;2.05;1.20;;;16.50;78.90;;;14.76;100.00;96179.09;4755746;29;20507;-68
2022/10/22 09:39:55;;;;;;;;;;;16.60;78.80;;;14.77;100.00;96179.91;4772982;29;20557;-67
2022/10/22 09:42:21;;;;;;;4.78;1.27;;;16.50;78.50;;;14.75;100.00;96180.13;4787355;29;20272;-68
2022/10/22 09:44:58;;;;;;;1.80;0.95;;;16.50;79.00;;;14.79;100.00;96180.50;4771029;29;20376;-66
2022/10/22 09:47:36;;;;;;;1.20;0.68;;;16.50;78.50;;;14.82;100.00;96180.88;4776035;29;20567;-65
2022/10/22 09:50:27;;;;;;;1.65;0.68;;;16.60;78.20;;;14.90;100.00;96185.13;4769586;29;20357;-68
2022/10/22 09:53:27;;;;;;;1.02;0.60;;;16.70;78.10;;;14.98;100.00;96190.16;4767081;29;20656;-67
2022/10/22 09:55:58;;;;;;;1.15;0.63;;;16.90;78.30;;;15.05;100.00;96198.06;4758115;29;20640;-67
2022/10/22 09:58:25;;;;;;;4.00;0.65;;;17.00;77.80;;;15.14;100.00;96194.94;4756874;29;20406;-67
2022/10/22 10:01:01;;;;;;;2.05;0.52;;;17.10;76.50;;;15.23;100.00;96190.19;4775658;29;20307;-67
2022/10/22 10:03:30;;;;;;;1.38;0.68;;;17.30;76.60;;;15.39;100.00;96197.63;4776783;29;20604;-67
2022/10/22 10:06:01;;;;;;;2.28;0.55;;;17.50;76.00;;;15.48;100.00;96198.16;4755616;29;20301;-66
2022/10/22 10:08:28;;;;;;;1.13;0.60;;;17.50;75.10;;;15.53;100.00;96203.59;4754606;29;20517;-66
2022/10/22 10:10:59;;;;;;;3.85;0.70;;;17.50;75.80;;;15.57;100.00;96199.47;4766139;29;20322;-66
2022/10/22 10:14:33;;;;;;;1.35;0.70;;;17.50;76.80;;;15.63;100.00;96190.72;4766623;29;20413;-65
2022/10/22 10:17:18;;;;;;;3.92;0.88;;;17.60;75.90;;;15.66;100.00;96187.63;4744869;29;20520;-65
2022/10/22 10:20:27;;;;;;;1.67;1.00;;;17.60;75.50;;;15.65;100.00;96180.69;4774908;29;20621;-65
2022/10/22 10:23:00;;;;;;;1.83;0.90;;;17.60;75.50;;;15.70;100.00;96190.66;4753669;29;20468;-66
2022/10/22 10:26:06;;;;;;;1.35;0.65;;;17.70;75.20;;;15.87;100.00;96179.25;4776019;29;20279;-69
2022/10/22 10:29:01;;;;;;;2.38;0.60;;;18.40;74.00;;;16.13;100.00;96190.59;4780218;29;20429;-66